Time;durP1;ratioP1;P1;durP2;ratioP2;P2;SDS_P1;SDS_P2;PMS_P1;PMS_P2;Temp;Humidity;BMP_temperature;BMP_pressure;BME280_temperature;BME280_humidity;BME280_pressure;Samples;Min_cycle;Max_cycle;Signal;HPM_P1;HPM_P2
2022/07/16 00:01:34;;;;;;;4.88;4.32;;;;;;;32.30;45.08;101833.22;4216282;28;20069;-59
2022/07/16 00:03:36;;;;;;;4.72;4.32;;;;;;;32.32;45.18;101835.72;4215248;28;20044;-59
2022/07/16 00:05:37;;;;;;;5.72;4.60;;;;;;;32.32;45.67;101839.38;4215446;28;20073;-59
2022/07/16 00:07:38;;;;;;;5.03;4.53;;;;;;;32.32;45.36;101842.19;4214732;28;20040;-59
2022/07/16 00:09:40;;;;;;;4.78;4.15;;;;;;;32.28;45.20;101829.88;4202720;28;20106;-59
2022/07/16 00:11:41;;;;;;;4.78;4.20;;;;;;;32.31;45.15;101836.88;4198879;28;20121;-59
2022/07/16 00:13:43;;;;;;;5.45;4.45;;;;;;;32.32;45.19;101835.72;4198802;28;20472;-59
2022/07/16 00:15:47;;;;;;;5.63;4.70;;;;;;;32.30;45.26;101833.22;4198725;28;20106;-59
2022/07/16 00:19:15;;;;;;;5.00;4.50;;;;;;;32.30;45.29;101841.72;4198766;28;20437;-59
2022/07/16 00:20:15;;;;;;;5.03;4.53;;;;;;;32.30;45.65;101835.19;4198697;28;20028;-59
2022/07/16 00:22:17;;;;;;;4.72;4.32;;;;;;;32.28;45.25;101827.06;4198748;28;20049;-59
2022/07/16 00:24:22;;;;;;;5.10;4.60;;;;;;;32.31;45.28;101831.22;4198556;28;20135;-59
2022/07/16 00:26:23;;;;;;;4.57;3.78;;;;;;;32.30;45.51;101836.06;4197534;28;20479;-59
2022/07/16 00:28:25;;;;;;;4.97;4.53;;;;;;;32.30;45.22;101836.06;4198921;28;20545;-59
2022/07/16 00:30:29;;;;;;;4.72;4.22;;;;;;;32.29;45.39;101842.88;4188570;28;20103;-59
2022/07/16 00:32:30;;;;;;;5.22;4.72;;;;;;;32.29;45.23;101840.03;4181834;28;20098;-59
2022/07/16 00:34:33;;;;;;;5.88;5.28;;;;;;;32.20;45.74;101832.75;4181516;28;20063;-59
2022/07/16 00:36:35;;;;;;;5.20;4.70;;;;;;;32.29;45.32;101844.88;4181467;28;20049;-59
2022/07/16 00:38:37;;;;;;;5.00;4.45;;;;;;;32.29;45.39;101850.53;4184940;28;20083;-59
2022/07/16 00:40:38;;;;;;;5.25;4.60;;;;;;;32.29;45.58;101840.03;4214844;28;20044;-60
2022/07/16 00:42:39;;;;;;;4.25;3.70;;;;;;;32.27;45.23;101842.38;4214980;28;20545;-59
2022/07/16 00:44:41;;;;;;;5.72;4.40;;;;;;;32.28;45.33;101848.88;4215066;28;20109;-60
2022/07/16 00:46:47;;;;;;;4.95;4.55;;;;;;;32.28;45.63;101855.38;4215121;28;20044;-60
2022/07/16 00:48:48;;;;;;;4.82;4.43;;;;;;;32.27;45.75;101853.72;4210946;28;20557;-59
2022/07/16 00:50:49;;;;;;;6.32;4.88;;;;;;;32.27;45.35;101848.06;4198151;28;20036;-59
2022/07/16 00:52:51;;;;;;;5.28;4.65;;;;;;;32.20;45.96;101850.56;4198132;28;20102;-59
2022/07/16 00:54:53;;;;;;;4.85;4.38;;;;;;;32.26;45.38;101854.88;4198368;28;20090;-59
2022/07/16 00:56:54;;;;;;;6.25;4.93;;;;;;;32.26;45.79;101857.72;4198444;28;20021;-59
2022/07/16 00:58:59;;;;;;;6.60;4.88;;;;;;;32.26;45.62;101857.72;4197754;28;20576;-59
2022/07/16 01:01:00;;;;;;;5.03;4.55;;;;;;;32.23;45.49;101858.38;4198030;28;20110;-59
2022/07/16 01:03:05;;;;;;;5.10;4.60;;;;;;;32.17;45.45;101853.25;4197881;28;20036;-59
2022/07/16 01:05:07;;;;;;;4.78;4.38;;;;;;;32.26;45.71;101868.22;4197902;28;20094;-59
2022/07/16 01:07:12;;;;;;;4.97;4.53;;;;;;;32.25;45.56;101870.19;4197960;28;20533;-59
2022/07/16 01:09:15;;;;;;;5.13;4.60;;;;;;;32.25;45.55;101867.38;4203627;28;20032;-60
2022/07/16 01:11:18;;;;;;;5.07;4.57;;;;;;;32.25;45.58;101860.88;4214351;28;20467;-59
2022/07/16 01:13:20;;;;;;;5.53;4.87;;;;;;;32.26;45.87;101868.22;4214372;28;20043;-59
2022/07/16 01:15:21;;;;;;;4.90;4.40;;;;;;;32.24;45.67;101868.53;4214690;28;20471;-59
2022/07/16 01:17:26;;;;;;;5.40;4.25;;;;;;;32.16;45.75;101858.06;4214241;28;20036;-59
2022/07/16 01:19:27;;;;;;;4.85;4.35;;;;;;;32.25;45.77;101875.84;4205372;28;20044;-59
2022/07/16 01:21:28;;;;;;;5.50;4.57;;;;;;;32.22;45.73;101876.56;4197492;28;20430;-59
2022/07/16 01:23:30;;;;;;;5.50;4.63;;;;;;;32.24;45.72;101876.22;4197608;28;20044;-59
2022/07/16 01:25:32;;;;;;;4.97;4.47;;;;;;;32.14;45.90;101866.06;4197529;28;20090;-59
2022/07/16 01:27:36;;;;;;;5.07;4.57;;;;;;;32.22;45.60;101884.22;4197664;28;20041;-59
2022/07/16 01:29:37;;;;;;;5.20;4.70;;;;;;;32.22;45.91;101893.56;4206386;28;20036;-59
2022/07/16 01:31:38;;;;;;;5.25;4.72;;;;;;;32.21;45.70;101891.88;4214152;28;20032;-59
2022/07/16 01:33:41;;;;;;;4.90;4.43;;;;;;;32.20;45.83;101897.88;4214178;28;20043;-59
2022/07/16 01:35:42;;;;;;;5.10;4.60;;;;;;;32.18;46.00;101884.06;4214482;28;20048;-59
2022/07/16 01:37:46;;;;;;;5.55;4.72;;;;;;;32.21;45.90;101900.38;4214134;28;20040;-60
2022/07/16 01:39:54;;;;;;;4.95;4.55;;;;;;;32.21;45.80;101905.19;4202990;28;20113;-59
2022/07/16 01:42:00;;;;;;;4.50;4.10;;;;;;;32.20;45.80;101901.53;4197508;28;20036;-59
2022/07/16 01:44:01;;;;;;;4.78;4.38;;;;;;;32.20;46.04;101904.38;4196234;28;20049;-59
2022/07/16 01:46:06;;;;;;;4.57;4.10;;;;;;;32.18;45.87;101903.88;4197441;28;20551;-59
2022/07/16 01:48:08;;;;;;;6.35;4.60;;;;;;;32.20;45.57;101907.19;4197495;28;20090;-59
2022/07/16 01:50:10;;;;;;;4.68;4.22;;;;;;;32.19;45.88;101908.38;4210616;28;20098;-59
2022/07/16 01:52:14;;;;;;;5.78;5.18;;;;;;;32.18;46.07;101901.03;4213782;28;20097;-59
2022/07/16 01:54:21;;;;;;;5.10;4.60;;;;;;;32.18;45.69;101918.03;4213831;28;20040;-59
2022/07/16 01:56:23;;;;;;;4.95;4.45;;;;;;;32.10;45.75;101896.22;4214028;28;20109;-59
2022/07/16 01:58:25;;;;;;;6.28;5.40;;;;;;;32.17;45.72;101915.56;4213689;28;20040;-59
2022/07/16 02:00:27;;;;;;;5.35;4.80;;;;;;;32.18;45.66;101918.03;4198657;28;20086;-59
2022/07/16 02:02:28;;;;;;;6.57;5.03;;;;;;;32.17;45.74;101915.56;4197391;28;20036;-59
2022/07/16 02:04:33;;;;;;;5.38;4.88;;;;;;;32.17;45.62;101916.38;4196769;28;20541;-59
2022/07/16 02:06:37;;;;;;;5.47;4.95;;;;;;;32.17;45.60;101916.38;4197328;28;20090;-59
2022/07/16 02:08:41;;;;;;;6.15;5.53;;;;;;;32.10;45.46;101904.72;4196416;28;20033;-59
2022/07/16 02:10:42;;;;;;;;;;;;;;;32.15;45.42;101921.53;4181034;28;20106;-59
2022/07/16 02:12:49;;;;;;;6.07;5.47;;;;;;;32.20;45.44;101915.69;4180724;28;19958;-59
2022/07/16 02:14:54;;;;;;;6.45;5.10;;;;;;;32.20;45.49;101927.03;4180163;28;20112;-59
2022/07/16 02:16:55;;;;;;;5.30;4.80;;;;;;;32.09;45.54;101906.72;4180480;28;20110;-59
2022/07/16 02:18:56;;;;;;;5.15;4.55;;;;;;;32.17;45.50;101922.03;4212146;28;20036;-59
2022/07/16 02:20:58;;;;;;;5.68;5.07;;;;;;;32.16;45.47;101917.53;4213383;28;20039;-59
2022/07/16 02:22:59;;;;;;;5.53;5.03;;;;;;;32.15;45.49;101924.38;4213539;28;20097;-59
2022/07/16 02:25:01;;;;;;;6.20;5.15;;;;;;;32.16;45.50;101922.34;4200754;28;20036;-59
2022/07/16 02:27:03;;;;;;;7.13;5.05;;;;;;;32.16;45.54;101925.19;4196602;28;20135;-58
2022/07/16 02:29:04;;;;;;;4.85;4.45;;;;;;;32.15;45.67;101924.38;4179823;28;20037;-59
2022/07/16 02:31:08;;;;;;;6.22;5.03;;;;;;;32.10;45.69;101911.22;4183042;28;20037;-59
2022/07/16 02:33:12;;;;;;;5.68;5.03;;;;;;;32.00;45.78;101885.25;4183588;28;20468;-59
2022/07/16 02:35:13;;;;;;;6.45;5.50;;;;;;;32.13;45.72;101912.56;4183568;28;20033;-59
2022/07/16 02:37:15;;;;;;;8.00;5.03;;;;;;;32.12;45.63;101914.56;4186714;28;20033;-59
2022/07/16 02:39:16;;;;;;;5.38;4.85;;;;;;;32.08;45.70;101910.72;4216299;28;20044;-59
2022/07/16 02:41:18;;;;;;;7.35;4.70;;;;;;;32.11;45.55;101917.69;4207583;28;20048;-59
2022/07/16 02:43:24;;;;;;;6.47;5.38;;;;;;;32.07;45.86;101917.56;4199836;28;20086;-59
2022/07/16 02:45:26;;;;;;;6.20;5.25;;;;;;;32.10;45.44;101924.53;4199618;28;20044;-59
2022/07/16 02:47:27;;;;;;;5.40;4.90;;;;;;;32.11;45.78;101918.53;4202569;28;20036;-59
2022/07/16 02:49:32;;;;;;;6.75;5.60;;;;;;;32.10;45.78;101928.19;4216024;28;20105;-58
2022/07/16 02:51:33;;;;;;;5.75;4.70;;;;;;;32.10;46.02;101933.84;4216347;28;20085;-59
2022/07/16 02:53:34;;;;;;;5.38;4.88;;;;;;;32.09;45.86;101925.72;4208588;28;20053;-59
2022/07/16 02:55:36;;;;;;;5.65;5.00;;;;;;;32.09;45.76;101925.72;4190456;28;20045;-59
2022/07/16 02:57:40;;;;;;;6.60;5.18;;;;;;;32.06;45.73;101921.53;4190502;28;20525;-59
2022/07/16 02:59:41;;;;;;;5.43;4.85;;;;;;;32.08;45.80;101924.88;4216565;28;20044;-59
2022/07/16 03:01:43;;;;;;;5.60;5.00;;;;;;;32.08;45.65;101927.72;4216738;28;20097;-59
2022/07/16 03:03:44;;;;;;;5.90;5.18;;;;;;;32.09;45.49;101934.22;4215912;28;20141;-59
2022/07/16 03:05:48;;;;;;;4.97;4.57;;;;;;;32.08;45.52;101929.72;4216571;28;20044;-60
2022/07/16 03:07:50;;;;;;;5.60;5.10;;;;;;;32.07;45.70;101928.03;4211113;28;20075;-59
2022/07/16 03:09:51;;;;;;;5.13;4.72;;;;;;;32.08;45.66;101929.72;4198465;28;20040;-59
2022/07/16 03:11:53;;;;;;;5.70;5.10;;;;;;;32.07;45.78;101928.03;4199844;28;20086;-59
2022/07/16 03:13:54;;;;;;;5.82;5.00;;;;;;;32.07;45.60;101928.03;4199635;28;20093;-59
2022/07/16 03:15:55;;;;;;;5.00;4.50;;;;;;;32.06;45.87;101923.53;4199499;28;20040;-59
2022/07/16 03:17:57;;;;;;;5.53;5.00;;;;;;;31.85;45.88;101895.09;4205638;28;20405;-58
2022/07/16 03:19:58;;;;;;;5.43;4.47;;;;;;;32.07;45.85;101933.69;4216571;28;20070;-59
2022/07/16 03:22:03;;;;;;;5.75;5.13;;;;;;;32.07;45.67;101928.03;4210713;28;20093;-59
2022/07/16 03:24:04;;;;;;;6.68;5.05;;;;;;;32.03;45.87;101921.41;4215933;28;20089;-59
2022/07/16 03:26:06;;;;;;;5.75;5.05;;;;;;;32.07;45.68;101936.53;4216487;28;20036;-59
2022/07/16 03:28:08;;;;;;;5.35;4.85;;;;;;;32.06;45.81;101932.03;4215592;28;20101;-59
2022/07/16 03:30:11;;;;;;;5.10;4.60;;;;;;;32.05;45.71;101933.22;4216114;28;20082;-59
2022/07/16 03:32:15;;;;;;;6.18;5.57;;;;;;;32.01;45.72;101923.72;4216342;28;20036;-59
2022/07/16 03:34:19;;;;;;;6.53;4.80;;;;;;;32.03;45.83;101932.72;4215992;28;20449;-58
2022/07/16 03:36:22;;;;;;;5.38;4.88;;;;;;;32.05;45.66;101945.38;4216494;28;20085;-59
2022/07/16 03:40:58;;;;;;;5.70;5.05;;;;;;;32.02;45.53;101931.03;4199416;28;20086;-59
2022/07/16 03:43:02;;;;;;;6.30;5.70;;;;;;;32.05;45.49;101933.22;4198892;28;20045;-59
2022/07/16 03:45:07;;;;;;;5.55;5.03;;;;;;;32.06;45.59;101954.69;4199202;28;20089;-59
2022/07/16 03:47:09;;;;;;;6.32;5.72;;;;;;;32.05;45.66;101947.38;4199021;28;20110;-59
2022/07/16 03:49:10;;;;;;;5.43;4.88;;;;;;;32.04;45.62;101952.19;4214162;28;20093;-59
2022/07/16 03:51:15;;;;;;;5.30;4.80;;;;;;;32.04;45.68;101951.38;4216060;28;20040;-59
2022/07/16 03:53:19;;;;;;;5.78;5.28;;;;;;;32.03;45.69;101949.72;4182802;28;20102;-59
2022/07/16 03:55:20;;;;;;;7.13;5.47;;;;;;;32.03;45.82;101952.53;4182587;28;20554;-59
2022/07/16 03:59:43;;;;;;;5.70;5.10;;;;;;;32.02;45.54;101948.84;4181453;28;20045;-59
2022/07/16 04:01:53;;;;;;;5.05;4.53;;;;;;;32.03;45.76;101947.72;4182930;28;20098;-59
2022/07/16 04:03:57;;;;;;;5.90;4.53;;;;;;;31.98;45.77;101941.34;4182541;28;20033;-59
2022/07/16 04:05:59;;;;;;;6.28;5.15;;;;;;;31.98;45.60;101942.22;4182617;28;20098;-59
2022/07/16 04:08:04;;;;;;;5.70;5.07;;;;;;;32.03;45.74;101944.03;4193933;28;20426;-59
2022/07/16 04:10:05;;;;;;;5.72;5.07;;;;;;;32.02;45.51;101942.34;4215124;28;20036;-59
2022/07/16 04:12:07;;;;;;;4.72;4.32;;;;;;;32.01;45.74;101947.19;4215489;28;20483;-59
2022/07/16 04:14:08;;;;;;;7.38;5.60;;;;;;;32.02;45.92;101948.03;4215840;28;20537;-59
2022/07/16 04:16:15;;;;;;;5.20;4.70;;;;;;;32.00;45.68;101945.53;4212178;28;20045;-59
2022/07/16 04:18:17;;;;;;;5.53;4.43;;;;;;;32.01;45.95;101947.19;4198616;28;20048;-59
2022/07/16 04:20:18;;;;;;;7.30;5.10;;;;;;;32.00;45.72;101945.53;4198644;28;20036;-59
2022/07/16 04:22:22;;;;;;;5.80;5.20;;;;;;;31.99;45.46;101938.22;4198888;28;20040;-59
2022/07/16 04:24:24;;;;;;;5.90;5.30;;;;;;;32.00;45.82;101939.88;4198452;28;20418;-59
2022/07/16 04:26:27;;;;;;;6.32;5.22;;;;;;;31.99;45.60;101938.22;4203620;28;20032;-59
2022/07/16 04:28:29;;;;;;;6.07;5.20;;;;;;;31.96;45.68;101932.38;4214891;28;20093;-59
2022/07/16 04:30:31;;;;;;;5.63;5.03;;;;;;;31.99;45.85;101928.88;4215509;28;20094;-59
2022/07/16 04:32:32;;;;;;;5.50;5.00;;;;;;;31.99;46.03;101926.06;4215058;28;20483;-59
2022/07/16 04:34:33;;;;;;;6.03;4.40;;;;;;;31.98;46.00;101930.03;4215091;28;20093;-59
2022/07/16 04:36:34;;;;;;;6.00;5.28;;;;;;;31.98;45.83;101924.38;4208729;28;20502;-59
2022/07/16 04:38:36;;;;;;;4.95;4.50;;;;;;;31.98;46.00;101935.69;4198202;28;20032;-59
2022/07/16 04:40:37;;;;;;;6.15;5.28;;;;;;;31.97;45.85;101928.38;4198569;28;20561;-59
2022/07/16 04:42:40;;;;;;;5.38;4.88;;;;;;;31.97;45.85;101928.38;4198516;28;20044;-59
2022/07/16 04:44:41;;;;;;;5.07;4.50;;;;;;;31.94;45.74;101923.41;4198421;28;20488;-59
2022/07/16 04:46:43;;;;;;;5.43;4.93;;;;;;;31.97;46.01;101928.38;4205212;28;20036;-59
2022/07/16 04:48:44;;;;;;;5.78;4.85;;;;;;;31.96;45.72;101929.53;4214867;28;20036;-59
2022/07/16 04:50:45;;;;;;;5.55;4.97;;;;;;;31.96;45.96;101923.88;4214964;28;20036;-59
2022/07/16 04:52:46;;;;;;;6.07;5.28;;;;;;;31.96;45.81;101926.72;4215104;28;20105;-59
2022/07/16 04:54:48;;;;;;;5.68;5.13;;;;;;;31.91;46.01;101924.06;4214736;28;20032;-59
2022/07/16 04:56:52;;;;;;;6.03;4.85;;;;;;;31.95;45.94;101922.22;4207935;28;20037;-59
2022/07/16 04:58:54;;;;;;;5.40;4.90;;;;;;;31.95;45.92;101919.41;4197994;28;20036;-59
2022/07/16 05:00:55;;;;;;;5.95;5.38;;;;;;;31.95;46.01;101919.41;4198470;28;20045;-59
2022/07/16 05:02:56;;;;;;;5.78;5.15;;;;;;;31.93;46.06;101916.06;4198217;28;20036;-59
2022/07/16 05:04:57;;;;;;;5.90;5.30;;;;;;;31.93;45.94;101921.72;4198111;28;20542;-59
2022/07/16 05:06:59;;;;;;;5.80;5.18;;;;;;;31.94;45.86;101917.75;4206003;28;20044;-59
2022/07/16 05:09:01;;;;;;;7.20;5.80;;;;;;;31.93;46.02;101910.38;4214440;28;20036;-59
2022/07/16 05:11:02;;;;;;;5.95;5.30;;;;;;;31.86;45.90;101897.59;4214918;28;20082;-59
2022/07/16 05:13:05;;;;;;;5.88;5.28;;;;;;;31.92;46.03;101909.56;4214434;28;20040;-59
2022/07/16 05:15:07;;;;;;;5.38;4.93;;;;;;;31.91;45.95;101905.06;4214463;28;20090;-59
2022/07/16 05:17:08;;;;;;;5.72;5.13;;;;;;;31.91;46.15;101905.06;4205418;28;20044;-59
2022/07/16 05:19:12;;;;;;;5.75;5.25;;;;;;;31.89;46.11;101898.94;4197743;28;20048;-59
2022/07/16 05:21:14;;;;;;;6.05;5.45;;;;;;;31.91;46.09;101901.41;4198173;28;20032;-59
2022/07/16 05:23:15;;;;;;;5.70;5.18;;;;;;;31.90;46.08;101899.75;4197913;28;20078;-60
2022/07/16 05:25:17;;;;;;;6.18;5.57;;;;;;;31.90;46.25;101894.09;4197882;28;20048;-60
2022/07/16 05:27:18;;;;;;;6.00;5.40;;;;;;;31.88;46.11;101892.41;4207902;28;20105;-59
2022/07/16 05:29:20;;;;;;;5.25;4.75;;;;;;;31.87;46.01;101896.41;4214021;28;20044;-59
2022/07/16 05:31:21;;;;;;;5.75;5.20;;;;;;;31.90;46.25;101899.75;4214297;28;20044;-59
2022/07/16 05:33:22;;;;;;;5.97;5.32;;;;;;;31.87;46.03;101890.75;4214216;28;20480;-59
2022/07/16 05:35:24;;;;;;;6.18;5.57;;;;;;;31.87;46.09;101887.91;4214548;28;20036;-59
2022/07/16 05:37:25;;;;;;;6.47;5.40;;;;;;;31.80;46.17;101889.56;4203278;28;20430;-59
2022/07/16 05:39:29;;;;;;;6.28;5.68;;;;;;;31.83;46.24;101892.56;4197476;28;20040;-59
2022/07/16 05:41:34;;;;;;;;;;;;;;;31.84;46.20;101902.75;4196810;28;20036;-59
2022/07/16 05:43:38;;;;;;;5.75;5.22;;;;;;;31.88;46.04;101895.22;4198103;28;20437;-59
2022/07/16 05:45:39;;;;;;;6.70;6.10;;;;;;;31.90;46.27;101894.09;4197723;28;20434;-59
2022/07/16 05:47:41;;;;;;;6.65;5.88;;;;;;;31.88;46.24;101892.41;4209351;28;20085;-59
2022/07/16 05:49:42;;;;;;;6.38;5.78;;;;;;;31.88;46.21;101895.22;4214074;28;20345;-59
2022/07/16 05:51:43;;;;;;;6.47;5.88;;;;;;;31.80;46.00;101876.25;4214522;28;20036;-59
2022/07/16 05:53:44;;;;;;;6.30;5.70;;;;;;;31.85;46.11;101883.78;4214281;28;20036;-59
2022/07/16 05:55:48;;;;;;;5.88;5.38;;;;;;;31.85;46.23;101890.25;4214056;28;20044;-59
2022/07/16 05:57:50;;;;;;;5.93;5.40;;;;;;;31.85;46.00;101887.44;4200524;28;20109;-59
2022/07/16 05:59:51;;;;;;;6.15;5.55;;;;;;;31.83;46.12;101878.44;4197141;28;20036;-59
2022/07/16 06:01:52;;;;;;;6.50;5.68;;;;;;;31.85;46.26;101884.59;4197563;28;20166;-59
2022/07/16 06:03:54;;;;;;;6.97;6.03;;;;;;;31.83;45.90;101878.44;4197622;28;20037;-59
2022/07/16 06:06:04;;;;;;;5.80;5.20;;;;;;;31.60;46.12;101845.78;4209173;28;20433;-59
2022/07/16 06:08:08;;;;;;;5.97;5.47;;;;;;;31.85;46.29;101887.44;4217855;28;20097;-59
2022/07/16 06:10:09;;;;;;;8.18;5.90;;;;;;;31.85;46.27;101887.44;4217076;28;20036;-59
2022/07/16 06:12:13;;;;;;;6.40;5.80;;;;;;;31.74;46.25;101869.06;4216393;28;20024;-59
2022/07/16 06:14:15;;;;;;;6.07;5.57;;;;;;;31.85;46.23;101893.09;4217751;28;20078;-59
2022/07/16 06:16:16;;;;;;;5.88;5.25;;;;;;;31.83;46.09;101889.75;4212933;28;20120;-59
2022/07/16 06:18:20;;;;;;;6.80;6.20;;;;;;;31.83;46.05;101892.56;4217356;28;20212;-59
2022/07/16 06:20:22;;;;;;;7.20;6.50;;;;;;;31.84;46.04;101891.44;4217598;28;20028;-59
2022/07/16 06:22:26;;;;;;;6.88;6.28;;;;;;;31.83;46.22;101889.75;4217456;28;20036;-59
2022/07/16 06:24:28;;;;;;;6.57;5.95;;;;;;;31.83;46.31;101889.75;4217227;28;20040;-59
2022/07/16 06:26:29;;;;;;;5.50;5.00;;;;;;;31.81;45.97;101886.41;4202807;28;20040;-59
2022/07/16 06:28:30;;;;;;;6.53;5.93;;;;;;;31.83;46.00;101888.91;4200380;28;20044;-59
2022/07/16 06:30:32;;;;;;;6.45;5.85;;;;;;;31.81;46.28;101886.41;4200702;28;20081;-59
2022/07/16 06:32:33;;;;;;;7.00;6.05;;;;;;;31.83;46.11;101889.75;4200610;28;20048;-59
2022/07/16 06:34:37;;;;;;;6.57;5.97;;;;;;;31.82;46.01;101888.09;4200645;28;20565;-59
2022/07/16 06:36:38;;;;;;;6.82;6.22;;;;;;;31.81;46.03;101886.41;4215331;28;20172;-59
2022/07/16 06:38:40;;;;;;;6.43;5.82;;;;;;;31.81;45.93;101875.09;4216904;28;20048;-59
2022/07/16 06:40:43;;;;;;;6.47;5.72;;;;;;;31.79;46.24;101871.72;4217259;28;20097;-59
2022/07/16 06:42:47;;;;;;;7.40;6.63;;;;;;;31.80;46.26;101867.75;4216896;28;20149;-59
2022/07/16 06:44:48;;;;;;;7.05;6.35;;;;;;;31.81;46.04;101874.25;4203890;28;20044;-59
2022/07/16 06:46:50;;;;;;;6.35;5.75;;;;;;;31.81;46.09;101869.41;4200436;28;20036;-59
2022/07/16 06:48:51;;;;;;;6.55;5.95;;;;;;;31.79;46.04;101868.91;4200171;28;20094;-59
2022/07/16 06:50:53;;;;;;;6.85;6.05;;;;;;;31.79;46.16;101871.72;4199950;28;20098;-59
2022/07/16 06:52:57;;;;;;;6.60;6.00;;;;;;;31.71;46.20;101861.28;4200278;28;20036;-59
2022/07/16 06:54:59;;;;;;;7.45;6.68;;;;;;;31.79;45.96;101876.56;4212532;28;20552;-59
2022/07/16 06:57:00;;;;;;;6.82;6.13;;;;;;;31.76;46.08;101872.44;4216585;28;20044;-59
2022/07/16 06:59:02;;;;;;;6.35;5.75;;;;;;;31.79;46.23;101870.91;4216558;28;20097;-60
2022/07/16 07:01:03;;;;;;;6.57;5.97;;;;;;;31.78;46.43;101863.59;4216611;28;20040;-59
2022/07/16 07:03:05;;;;;;;6.50;5.90;;;;;;;31.77;46.25;101862.75;4216780;28;20113;-59
2022/07/16 07:05:07;;;;;;;6.82;6.13;;;;;;;31.76;46.28;101866.75;4202340;28;20044;-59
2022/07/16 07:07:10;;;;;;;7.40;6.70;;;;;;;31.76;46.31;101866.75;4199896;28;20045;-59
2022/07/16 07:09:15;;;;;;;6.97;6.38;;;;;;;31.71;46.21;101857.63;4199716;28;20037;-60
2022/07/16 07:11:16;;;;;;;6.25;5.65;;;;;;;31.76;46.22;101866.75;4200111;28;20431;-60
2022/07/16 07:13:18;;;;;;;7.28;6.57;;;;;;;31.75;46.33;101870.75;4199917;28;20098;-61
2022/07/16 07:15:19;;;;;;;7.18;6.47;;;;;;;31.74;46.44;101869.06;4214774;28;20108;-59
2022/07/16 07:17:21;;;;;;;7.50;6.80;;;;;;;31.71;46.33;101857.63;4214797;28;20044;-58
2022/07/16 07:19:25;;;;;;;7.63;6.93;;;;;;;31.74;46.24;101869.06;4213118;28;20442;-58
2022/07/16 07:21:26;;;;;;;7.65;6.90;;;;;;;31.73;46.45;101864.59;4199894;28;20041;-58
2022/07/16 07:23:27;;;;;;;7.00;6.40;;;;;;;31.74;46.31;101868.25;4199686;28;20040;-58
2022/07/16 07:25:29;;;;;;;7.32;6.63;;;;;;;31.73;46.43;101861.75;4199695;28;20442;-58
2022/07/16 07:27:30;;;;;;;7.03;6.43;;;;;;;31.73;46.38;101872.25;4199599;28;20105;-58
2022/07/16 07:29:32;;;;;;;6.93;6.30;;;;;;;31.71;46.16;101864.09;4202512;28;20109;-58
2022/07/16 07:31:33;;;;;;;7.43;6.72;;;;;;;31.72;46.53;101864.94;4216424;28;20085;-60
2022/07/16 07:33:37;;;;;;;7.53;6.82;;;;;;;31.72;46.39;101865.75;4215322;28;20113;-58
2022/07/16 07:35:38;;;;;;;8.10;7.28;;;;;;;31.70;46.32;101868.06;4216067;28;20098;-58
2022/07/16 07:37:39;;;;;;;7.55;6.85;;;;;;;31.65;46.39;101854.09;4215768;28;20048;-58
2022/07/16 07:39:41;;;;;;;7.40;6.70;;;;;;;31.71;46.49;101858.44;4211446;28;20040;-58
2022/07/16 07:41:42;;;;;;;7.38;6.68;;;;;;;31.71;46.26;101852.78;4199545;28;20077;-58
2022/07/16 07:43:43;;;;;;;7.40;6.70;;;;;;;31.71;46.13;101864.09;4199133;28;20126;-59
2022/07/16 07:45:45;;;;;;;7.45;6.75;;;;;;;31.70;46.38;101851.09;4199111;28;20045;-58
2022/07/16 07:47:52;;;;;;;7.43;6.82;;;;;;;31.71;46.21;101851.97;4199413;28;20040;-59
2022/07/16 07:49:56;;;;;;;7.63;6.93;;;;;;;31.69;46.35;101854.28;4204657;28;20036;-58
2022/07/16 07:51:57;;;;;;;7.47;6.75;;;;;;;31.71;46.53;101858.44;4216100;28;20090;-58
2022/07/16 07:54:01;;;;;;;7.45;6.75;;;;;;;31.70;46.38;101856.75;4215865;28;20048;-58
2022/07/16 07:56:03;;;;;;;7.53;6.80;;;;;;;31.70;46.29;101862.41;4215775;28;20085;-58
2022/07/16 07:58:05;;;;;;;7.90;7.20;;;;;;;31.70;46.40;101868.06;4215689;28;20036;-58
2022/07/16 08:00:09;;;;;;;7.70;6.70;;;;;;;31.70;46.32;101853.94;4208160;28;20079;-58
2022/07/16 08:02:11;;;;;;;8.25;7.45;;;;;;;31.70;46.39;101868.06;4198960;28;20040;-58
2022/07/16 08:04:15;;;;;;;7.70;7.00;;;;;;;31.63;46.31;101856.44;4199099;28;20434;-59
2022/07/16 08:06:16;;;;;;;;;;;;;;;31.68;46.55;101855.44;4199439;28;20114;-58
2022/07/16 08:08:18;;;;;;;7.65;6.95;;;;;;;31.73;46.27;101853.28;4204649;28;19920;-57
2022/07/16 08:10:22;;;;;;;8.20;7.40;;;;;;;31.72;46.22;101859.28;4215520;28;20048;-58
2022/07/16 08:12:23;;;;;;;7.78;7.07;;;;;;;31.66;46.15;101850.13;4215974;28;20195;-58
2022/07/16 08:14:25;;;;;;;8.00;7.22;;;;;;;31.68;46.19;101853.44;4215866;28;20081;-58
2022/07/16 08:16:27;;;;;;;8.63;7.82;;;;;;;31.71;46.25;101854.78;4215315;28;20040;-60
2022/07/16 08:18:28;;;;;;;7.72;7.03;;;;;;;31.68;46.38;101859.09;4208219;28;20102;-58
2022/07/16 08:20:29;;;;;;;8.45;7.60;;;;;;;31.68;46.43;101859.09;4198814;28;20074;-59
2022/07/16 08:22:31;;;;;;;8.52;7.65;;;;;;;31.65;46.30;101848.44;4198900;28;20044;-59
2022/07/16 08:26:55;;;;;;;7.55;6.80;;;;;;;31.68;46.36;101856.28;4198332;28;20121;-59
2022/07/16 08:28:56;;;;;;;7.88;7.18;;;;;;;31.67;46.51;101848.97;4208166;28;20112;-59
2022/07/16 08:30:58;;;;;;;6.97;6.38;;;;;;;31.59;46.15;101839.28;4215458;28;20104;-59
2022/07/16 08:32:59;;;;;;;8.20;7.40;;;;;;;31.69;46.31;101842.94;4215626;28;20372;-59
2022/07/16 08:35:00;;;;;;;8.07;7.38;;;;;;;31.69;46.04;101842.94;4215111;28;20372;-59
2022/07/16 08:37:07;;;;;;;8.02;7.22;;;;;;;31.68;46.35;101842.13;4214948;28;20475;-58
2022/07/16 08:39:08;;;;;;;8.57;7.72;;;;;;;31.69;46.24;101845.78;4202520;28;20484;-59
2022/07/16 08:41:10;;;;;;;8.10;7.40;;;;;;;31.69;46.20;101851.44;4198510;28;20460;-59
2022/07/16 08:43:14;;;;;;;8.70;7.90;;;;;;;31.69;46.12;101849.44;4198511;28;20036;-59
2022/07/16 08:45:19;;;;;;;8.63;7.72;;;;;;;31.69;46.22;101842.94;4198467;28;20045;-59
2022/07/16 08:47:21;;;;;;;8.20;7.40;;;;;;;31.68;46.19;101830.81;4208601;28;20044;-59
2022/07/16 08:49:23;;;;;;;7.82;7.13;;;;;;;31.61;46.04;101822.84;4214675;28;20051;-59
2022/07/16 08:51:32;;;;;;;9.25;8.35;;;;;;;31.62;46.31;101826.50;4214903;28;20040;-59
2022/07/16 08:53:33;;;;;;;8.98;8.15;;;;;;;31.66;46.14;101824.66;4214904;28;20129;-58
2022/07/16 08:55:40;;;;;;;8.15;7.45;;;;;;;31.65;46.12;101825.81;4215183;28;20032;-59
2022/07/16 08:57:41;;;;;;;8.45;7.65;;;;;;;31.67;46.16;101834.81;4201138;28;20454;-58
2022/07/16 08:59:43;;;;;;;8.50;7.70;;;;;;;31.66;46.36;101835.13;4197938;28;20036;-59
2022/07/16 09:01:47;;;;;;;8.50;7.70;;;;;;;31.66;46.11;101840.78;4198092;28;20032;-59
2022/07/16 09:03:49;;;;;;;8.52;7.72;;;;;;;31.57;46.17;101823.84;4198089;28;20434;-58
2022/07/16 09:05:51;;;;;;;9.07;8.18;;;;;;;31.63;46.36;101839.47;4198005;28;20045;-59
2022/07/16 09:07:53;;;;;;;8.95;8.15;;;;;;;31.57;46.47;101833.16;4212577;28;20028;-58
2022/07/16 09:09:54;;;;;;;9.07;8.18;;;;;;;31.64;46.51;101846.78;4214698;28;20032;-58
2022/07/16 09:11:55;;;;;;;9.25;8.35;;;;;;;31.63;46.53;101845.13;4214582;28;20105;-58
2022/07/16 09:14:16;;;;;;;8.48;7.68;;;;;;;31.60;46.42;101857.09;4215011;28;20377;-58
2022/07/16 09:16:29;;;;;;;8.32;7.53;;;;;;;31.61;46.61;101850.28;4213947;28;20548;-58
2022/07/16 09:18:31;;;;;;;8.98;8.07;;;;;;;31.54;46.45;101839.47;4197488;28;20090;-59
2022/07/16 09:20:32;;;;;;;8.57;7.78;;;;;;;31.62;46.37;101860.44;4197887;28;20040;-59
2022/07/16 09:22:37;;;;;;;9.15;8.25;;;;;;;31.61;46.38;101858.75;4197958;28;20101;-58
2022/07/16 09:24:41;;;;;;;9.38;8.45;;;;;;;31.62;46.68;101857.63;4198168;28;20054;-58
2022/07/16 09:26:42;;;;;;;9.10;8.20;;;;;;;31.60;46.34;101855.09;4201011;28;20391;-59
2022/07/16 09:28:47;;;;;;;9.50;8.55;;;;;;;31.61;46.27;101864.41;4214122;28;20036;-59
2022/07/16 09:30:49;;;;;;;8.98;8.18;;;;;;;31.60;46.63;101857.09;4214288;28;20105;-59
2022/07/16 09:32:50;;;;;;;9.10;8.30;;;;;;;31.60;46.51;101857.09;4214701;28;20036;-59
2022/07/16 09:35:13;;;;;;;9.52;8.65;;;;;;;31.59;46.45;101850.63;4214498;28;20032;-59
2022/07/16 09:37:15;;;;;;;9.00;8.10;;;;;;;31.60;46.33;101855.09;4206007;28;20082;-58
2022/07/16 09:39:18;;;;;;;9.40;8.50;;;;;;;31.60;46.53;101862.75;4196860;28;20044;-59